createdAt,value
2018-02-20T00:00:26.494Z,25.97
2018-02-20T00:02:53.956Z,26.77
2018-02-20T00:05:21.404Z,29.20
2018-02-20T00:07:49.115Z,25.97
2018-02-20T00:10:16.573Z,25.47
2018-02-20T00:12:44.083Z,27.60
2018-02-20T00:15:12.426Z,27.93
2018-02-20T00:17:40.869Z,26.30
2018-02-20T00:20:08.318Z,28.63
2018-02-20T00:22:36.024Z,25.40
2018-02-20T00:25:03.489Z,29.07
2018-02-20T00:27:30.965Z,27.87
2018-02-20T00:29:58.716Z,28.70
2018-02-20T00:32:26.168Z,27.67
2018-02-20T00:34:53.617Z,26.63
2018-02-20T00:37:21.411Z,30.47
2018-02-20T00:39:48.861Z,26.97
2018-02-20T00:42:16.325Z,27.27
2018-02-20T00:44:44.101Z,28.93
2018-02-20T00:47:11.554Z,29.37
2018-02-20T00:49:39.015Z,28.67
2018-02-20T00:52:07.084Z,30.27
2018-02-20T00:54:34.550Z,28.93
2018-02-20T00:57:02.306Z,26.63
2018-02-20T00:59:30.336Z,28.93
2018-02-20T01:01:57.800Z,28.90
2018-02-20T01:04:25.253Z,28.73
2018-02-20T01:06:53.081Z,30.17
2018-02-20T01:09:20.566Z,29.00
2018-02-20T01:11:48.032Z,29.07
2018-02-20T01:14:15.763Z,29.30
2018-02-20T01:16:43.225Z,27.57
2018-02-20T01:19:11.313Z,28.33
2018-02-20T01:21:39.104Z,28.30
2018-02-20T01:24:06.568Z,28.70
2018-02-20T01:26:34.039Z,27.90
2018-02-20T01:29:02.047Z,29.00
2018-02-20T01:31:29.528Z,29.07
2018-02-20T01:33:56.983Z,26.87
2018-02-20T01:36:24.744Z,27.77
2018-02-20T01:38:52.202Z,27.07
2018-02-20T01:41:19.681Z,26.50
2018-02-20T01:43:47.734Z,29.20
2018-02-20T01:46:15.213Z,30.10
2018-02-20T01:48:42.670Z,29.93
2018-02-20T01:51:10.500Z,26.57
2018-02-20T01:53:37.953Z,28.60
2018-02-20T01:56:05.410Z,28.03
2018-02-20T01:58:33.117Z,27.80
2018-02-20T02:01:00.584Z,27.97
2018-02-20T02:03:28.037Z,28.20
2018-02-20T02:05:55.805Z,29.17
2018-02-20T02:08:23.296Z,27.00
2018-02-20T02:10:50.762Z,29.20
2018-02-20T02:13:18.497Z,27.90
2018-02-20T02:15:45.988Z,29.73
2018-02-20T02:18:13.490Z,29.20
2018-02-20T02:20:42.441Z,28.37
2018-02-20T02:23:09.917Z,31.00
2018-02-20T02:25:37.365Z,30.67
2018-02-20T02:28:05.705Z,29.60
2018-02-20T02:30:33.161Z,27.57
2018-02-20T02:33:00.628Z,30.70
2018-02-20T02:35:28.399Z,29.47
2018-02-20T02:37:55.890Z,30.80
2018-02-20T02:40:23.365Z,32.87
2018-02-20T02:42:51.196Z,31.43
2018-02-20T02:45:18.653Z,32.07
2018-02-20T02:47:46.110Z,32.20
2018-02-20T02:50:14.077Z,34.63
2018-02-20T02:52:41.552Z,30.63
2018-02-20T02:55:09.004Z,34.50
2018-02-20T02:57:36.751Z,31.90
2018-02-20T03:00:04.208Z,32.23
2018-02-20T03:02:31.677Z,32.47
2018-02-20T03:04:59.445Z,34.00
2018-02-20T03:07:26.913Z,33.53
2018-02-20T03:09:54.373Z,34.73
2018-02-20T03:12:22.145Z,35.20
2018-02-20T03:14:49.598Z,34.67
2018-02-20T03:17:17.060Z,35.43
2018-02-20T03:19:44.817Z,35.70
2018-02-20T03:22:12.653Z,36.37
2018-02-20T03:24:40.104Z,38.33
2018-02-20T03:27:07.832Z,38.90
2018-02-20T03:29:35.293Z,38.20
2018-02-20T03:32:02.759Z,37.50
2018-02-20T03:34:30.493Z,37.30
2018-02-20T03:36:58.000Z,38.50
2018-02-20T03:39:25.454Z,36.80
2018-02-20T03:41:53.191Z,38.60
2018-02-20T03:44:20.645Z,38.00
2018-02-20T03:46:48.141Z,36.73
2018-02-20T03:49:15.787Z,37.40
2018-02-20T03:51:43.249Z,37.63
2018-02-20T03:54:10.708Z,35.37
2018-02-20T03:56:39.488Z,35.97
2018-02-20T03:59:06.944Z,36.83
2018-02-20T04:01:34.396Z,34.83
2018-02-20T04:04:02.134Z,37.17
2018-02-20T04:06:29.612Z,38.47
2018-02-20T04:08:57.065Z,34.60
2018-02-20T04:11:24.864Z,34.50
2018-02-20T04:13:52.338Z,34.00
2018-02-20T04:16:19.801Z,35.17
2018-02-20T04:18:47.537Z,33.73
2018-02-20T04:21:15.008Z,34.27
2018-02-20T04:23:43.444Z,37.30
2018-02-20T04:26:11.137Z,36.20
2018-02-20T04:28:38.605Z,36.30
2018-02-20T04:31:06.074Z,37.83
2018-02-20T04:33:33.809Z,33.90
2018-02-20T04:36:01.269Z,37.07
2018-02-20T04:38:28.726Z,36.70
2018-02-20T04:40:56.849Z,34.10
2018-02-20T04:43:24.317Z,38.57
2018-02-20T04:45:51.778Z,36.87
2018-02-20T04:48:19.506Z,36.70
2018-02-20T04:50:46.966Z,36.97
2018-02-20T04:53:14.432Z,33.37
2018-02-20T04:55:42.197Z,34.70
2018-02-20T04:58:09.668Z,36.97
2018-02-20T05:00:37.144Z,35.50
2018-02-20T05:03:04.894Z,37.90
2018-02-20T05:05:32.349Z,36.93
2018-02-20T05:07:59.799Z,35.83
2018-02-20T05:10:27.576Z,40.10
2018-02-20T05:12:55.036Z,39.90
2018-02-20T05:15:22.512Z,40.17
2018-02-20T05:17:50.260Z,40.50
2018-02-20T05:20:17.721Z,39.00
2018-02-20T05:22:45.183Z,41.57
2018-02-20T05:25:13.561Z,38.53
2018-02-20T05:27:41.024Z,40.50
2018-02-20T05:30:08.488Z,38.50
2018-02-20T05:32:36.261Z,39.37
2018-02-20T05:35:03.716Z,41.43
2018-02-20T05:37:31.178Z,42.60
2018-02-20T05:39:58.938Z,38.37
2018-02-20T05:42:27.825Z,41.40
2018-02-20T05:44:55.289Z,40.40
2018-02-20T05:47:22.928Z,38.73
2018-02-20T05:49:50.385Z,41.30
2018-02-20T05:52:17.845Z,41.80
2018-02-20T05:54:45.690Z,39.80
2018-02-20T05:57:13.561Z,39.00
2018-02-20T05:59:41.016Z,42.37
2018-02-20T06:02:08.847Z,41.43
2018-02-20T06:04:36.306Z,40.43
2018-02-20T06:07:03.766Z,44.47
2018-02-20T06:09:31.534Z,40.77
2018-02-20T06:11:59.000Z,41.50
2018-02-20T06:14:26.465Z,40.67
2018-02-20T06:16:54.246Z,43.40
2018-02-20T06:19:21.684Z,42.60
2018-02-20T06:21:49.166Z,41.70
2018-02-20T06:24:16.903Z,42.60
2018-02-20T06:26:44.744Z,43.90
2018-02-20T06:29:12.210Z,42.90
2018-02-20T06:31:40.040Z,42.70
2018-02-20T06:34:07.501Z,44.33
2018-02-20T06:36:34.961Z,41.30
2018-02-20T06:39:02.738Z,40.20
2018-02-20T06:41:30.201Z,38.47
2018-02-20T06:43:57.662Z,40.23
2018-02-20T06:46:25.579Z,37.37
2018-02-20T06:48:53.051Z,36.87
2018-02-20T06:51:20.512Z,38.70
2018-02-20T06:53:48.253Z,37.63
2018-02-20T06:56:15.709Z,36.10
2018-02-20T06:58:43.163Z,37.50
2018-02-20T07:01:10.807Z,37.10
2018-02-20T07:03:38.267Z,40.10
2018-02-20T07:06:05.742Z,37.83
2018-02-20T07:08:33.643Z,37.10
2018-02-20T07:11:01.100Z,38.87
2018-02-20T07:13:28.568Z,34.53
2018-02-20T07:15:56.320Z,37.80
2018-02-20T07:18:23.775Z,37.20
2018-02-20T07:20:51.238Z,33.03
2018-02-20T07:23:19.317Z,38.40
2018-02-20T07:25:46.778Z,37.37
2018-02-20T07:28:14.920Z,34.67
2018-02-20T07:30:42.950Z,32.97
2018-02-20T07:33:10.401Z,35.10
2018-02-20T07:35:37.861Z,34.60
2018-02-20T07:38:05.625Z,33.10
2018-02-20T07:40:33.116Z,35.50
2018-02-20T07:43:00.587Z,34.97
2018-02-20T07:45:28.308Z,36.83
2018-02-20T07:47:55.764Z,32.93
2018-02-20T07:50:23.221Z,32.83
2018-02-20T07:52:51.297Z,34.90
2018-02-20T07:55:18.753Z,36.53
2018-02-20T07:57:46.205Z,35.07
2018-02-20T08:00:14.272Z,35.57
2018-02-20T08:02:41.723Z,34.20
2018-02-20T08:05:09.182Z,35.50
2018-02-20T08:07:36.965Z,31.57
2018-02-20T08:10:04.416Z,34.23
2018-02-20T08:12:31.869Z,36.07
2018-02-20T08:14:59.512Z,33.67
2018-02-20T08:17:26.994Z,32.70
2018-02-20T08:19:54.461Z,33.47
2018-02-20T08:22:22.333Z,35.90
2018-02-20T08:24:49.786Z,34.70
2018-02-20T08:27:17.250Z,35.37
2018-02-20T08:29:45.657Z,37.00
2018-02-20T08:32:13.114Z,38.97
2018-02-20T08:34:40.565Z,35.63
2018-02-20T08:37:08.333Z,44.10
2018-02-20T08:39:35.785Z,41.77
2018-02-20T08:42:03.242Z,38.53
2018-02-20T08:44:31.328Z,36.50
2018-02-20T08:46:58.801Z,36.07
2018-02-20T08:49:26.549Z,36.27
2018-02-20T08:51:54.621Z,37.00
2018-02-20T08:54:22.140Z,35.87
2018-02-20T08:56:49.597Z,38.67
2018-02-20T08:59:17.638Z,36.63
2018-02-20T09:01:45.085Z,35.63
2018-02-20T09:04:12.537Z,39.37
2018-02-20T09:06:40.311Z,37.20
2018-02-20T09:09:07.774Z,37.83
2018-02-20T09:11:35.226Z,35.87
2018-02-20T09:14:02.992Z,36.00
2018-02-20T09:16:30.510Z,38.20
2018-02-20T09:18:57.962Z,38.50
2018-02-20T09:21:26.284Z,36.60
2018-02-20T09:23:53.736Z,34.50
2018-02-20T09:26:21.201Z,28.77
2018-02-20T09:28:48.977Z,35.37
2018-02-20T09:31:17.133Z,32.70
2018-02-20T09:33:44.580Z,31.70
2018-02-20T09:36:12.597Z,28.23
2018-02-20T09:38:40.099Z,28.10
2018-02-20T09:41:07.564Z,28.07
2018-02-20T09:43:35.595Z,27.37
2018-02-20T09:46:03.049Z,32.67
2018-02-20T09:48:30.510Z,32.90
2018-02-20T09:50:58.276Z,29.47
2018-02-20T09:53:25.725Z,30.30
2018-02-20T09:55:53.186Z,29.30
2018-02-20T09:58:20.972Z,25.43
2018-02-20T10:00:48.425Z,40.30
2018-02-20T10:03:15.884Z,28.40
2018-02-20T10:05:44.214Z,26.77
2018-02-20T10:08:11.668Z,29.07
2018-02-20T10:10:39.231Z,26.57
2018-02-20T10:13:06.945Z,26.30
2018-02-20T10:15:34.395Z,25.87
2018-02-20T10:18:01.852Z,26.83
2018-02-20T10:20:29.647Z,27.73
2018-02-20T10:22:57.106Z,26.27
2018-02-20T10:25:24.603Z,26.80
2018-02-20T10:27:52.665Z,26.13
2018-02-20T10:30:20.117Z,25.77
2018-02-20T10:32:49.457Z,25.40
2018-02-20T10:35:17.158Z,26.13
2018-02-20T10:37:44.616Z,25.57
2018-02-20T10:40:12.067Z,25.67
2018-02-20T10:42:39.895Z,27.67
2018-02-20T10:45:07.357Z,27.50
2018-02-20T10:47:34.813Z,26.83
2018-02-20T10:50:02.529Z,23.10
2018-02-20T10:52:29.978Z,31.03
2018-02-20T10:54:57.432Z,28.87
2018-02-20T10:57:25.181Z,30.37
2018-02-20T10:59:52.633Z,26.27
2018-02-20T11:02:20.166Z,26.17
2018-02-20T11:04:47.905Z,28.47
2018-02-20T11:07:15.357Z,27.23
2018-02-20T11:09:42.817Z,29.73
2018-02-20T11:12:10.598Z,27.70
2018-02-20T11:14:38.065Z,27.03
2018-02-20T11:17:05.519Z,24.87
2018-02-20T11:19:33.548Z,26.90
2018-02-20T11:22:01.005Z,26.40
2018-02-20T11:24:28.556Z,24.40
2018-02-20T11:26:56.577Z,24.50
2018-02-20T11:29:24.021Z,25.73
2018-02-20T11:31:51.575Z,27.57
2018-02-20T11:34:19.293Z,27.43
2018-02-20T11:36:46.740Z,25.00
2018-02-20T11:39:14.202Z,27.90
2018-02-20T11:41:41.981Z,26.47
2018-02-20T11:44:09.432Z,28.37
2018-02-20T11:46:36.888Z,25.50
2018-02-20T11:49:04.648Z,24.40
2018-02-20T11:51:32.110Z,26.30
2018-02-20T11:53:59.566Z,26.80
2018-02-20T11:56:27.654Z,28.07
2018-02-20T11:58:55.145Z,25.47
2018-02-20T12:01:22.613Z,26.17
2018-02-20T12:03:50.626Z,25.80
2018-02-20T12:06:18.137Z,26.10
2018-02-20T12:08:45.600Z,24.17
2018-02-20T12:11:13.267Z,27.83
2018-02-20T12:13:40.719Z,27.90
2018-02-20T12:16:08.181Z,26.40
2018-02-20T12:18:36.317Z,26.97
2018-02-20T12:21:03.773Z,26.83
2018-02-20T12:23:31.236Z,26.67
2018-02-20T12:25:59.001Z,28.77
2018-02-20T12:28:26.460Z,28.57
2018-02-20T12:30:53.934Z,32.20
2018-02-20T12:33:21.690Z,29.67
2018-02-20T12:35:49.870Z,27.63
2018-02-20T12:38:17.301Z,29.50
2018-02-20T12:40:45.297Z,31.60
2018-02-20T12:43:12.747Z,27.60
2018-02-20T12:45:40.204Z,38.03
2018-02-20T12:48:08.029Z,31.10
2018-02-20T12:50:35.482Z,30.20
2018-02-20T12:53:02.944Z,29.90
2018-02-20T12:55:30.669Z,27.90
2018-02-20T12:57:58.128Z,30.90
2018-02-20T13:00:25.597Z,31.17
2018-02-20T13:02:53.309Z,30.17
2018-02-20T13:05:20.765Z,33.60
2018-02-20T13:07:48.236Z,32.83
2018-02-20T13:10:16.091Z,34.00
2018-02-20T13:12:43.561Z,30.53
2018-02-20T13:15:11.020Z,33.37
2018-02-20T13:17:38.739Z,36.13
2018-02-20T13:20:06.193Z,36.13
2018-02-20T13:22:33.654Z,37.43
2018-02-20T13:25:01.440Z,36.30
2018-02-20T13:27:28.906Z,36.47
2018-02-20T13:29:56.364Z,36.80
2018-02-20T13:32:24.129Z,36.70
2018-02-20T13:34:51.587Z,35.30
2018-02-20T13:37:20.008Z,35.77
2018-02-20T13:39:47.713Z,35.90
2018-02-20T13:42:15.184Z,35.57
2018-02-20T13:44:42.653Z,31.07
2018-02-20T13:47:10.395Z,34.23
2018-02-20T13:49:37.848Z,32.87
2018-02-20T13:52:05.312Z,34.43
2018-02-20T13:54:33.389Z,31.93
2018-02-20T13:57:00.852Z,32.73
2018-02-20T13:59:28.312Z,34.30
2018-02-20T14:01:56.091Z,32.33
2018-02-20T14:04:23.579Z,30.40
2018-02-20T14:06:51.045Z,35.20
2018-02-20T14:09:18.712Z,29.07
2018-02-20T14:11:46.180Z,28.87
2018-02-20T14:14:13.670Z,28.57
2018-02-20T14:16:41.450Z,28.53
2018-02-20T14:19:08.916Z,29.00
2018-02-20T14:21:36.380Z,28.33
2018-02-20T14:24:04.112Z,30.97
2018-02-20T14:26:31.574Z,34.83
2018-02-20T14:28:59.033Z,29.30
2018-02-20T14:31:26.819Z,30.03
2018-02-20T14:33:54.777Z,29.17
2018-02-20T14:36:22.234Z,29.37
2018-02-20T14:38:50.385Z,26.23
2018-02-20T14:41:17.842Z,29.20
2018-02-20T14:43:45.303Z,29.97
2018-02-20T14:46:13.126Z,32.83
2018-02-20T14:48:40.586Z,29.00
2018-02-20T14:51:08.048Z,28.13
2018-02-20T14:53:35.805Z,33.57
2018-02-20T14:56:03.254Z,31.23
2018-02-20T14:58:30.709Z,32.80
2018-02-20T15:00:58.492Z,31.50
2018-02-20T15:03:25.977Z,31.50
2018-02-20T15:05:53.424Z,33.20
2018-02-20T15:08:21.258Z,32.73
2018-02-20T15:10:48.711Z,32.90
2018-02-20T15:13:16.173Z,34.60
2018-02-20T15:15:43.861Z,34.50
2018-02-20T15:18:11.318Z,34.93
2018-02-20T15:20:38.772Z,31.43
2018-02-20T15:23:06.554Z,30.97
2018-02-20T15:25:34.014Z,31.37
2018-02-20T15:28:01.468Z,33.30
2018-02-20T15:30:29.241Z,32.60
2018-02-20T15:32:56.717Z,35.73
2018-02-20T15:35:24.177Z,36.00
2018-02-20T15:37:51.934Z,34.70
2018-02-20T15:40:19.450Z,30.60
2018-02-20T15:42:46.896Z,31.30
2018-02-20T15:45:14.935Z,33.13
2018-02-20T15:47:42.396Z,34.90
2018-02-20T15:50:09.858Z,40.00
2018-02-20T15:52:37.615Z,44.23
2018-02-20T15:55:05.079Z,42.57
2018-02-20T15:57:32.555Z,32.03
2018-02-20T16:00:00.304Z,36.60
2018-02-20T16:02:27.762Z,37.40
2018-02-20T16:04:55.213Z,33.30
2018-02-20T16:07:22.981Z,34.20
2018-02-20T16:09:50.433Z,35.53
2018-02-20T16:12:17.880Z,41.47
2018-02-20T16:14:45.622Z,34.60
2018-02-20T16:17:13.074Z,35.20
2018-02-20T16:19:40.536Z,32.93
2018-02-20T16:22:08.375Z,34.63
2018-02-20T16:24:35.821Z,35.87
2018-02-20T16:27:03.278Z,34.43
2018-02-20T16:29:31.058Z,36.00
2018-02-20T16:31:58.526Z,36.63
2018-02-20T16:34:25.988Z,36.57
2018-02-20T16:36:54.037Z,36.60
2018-02-20T16:39:22.065Z,35.33
2018-02-20T16:41:52.106Z,38.10
2018-02-20T16:44:20.096Z,39.07
2018-02-20T16:46:47.548Z,39.63
2018-02-20T16:49:15.043Z,40.20
2018-02-20T16:51:43.101Z,41.40
2018-02-20T16:54:10.565Z,41.50
2018-02-20T16:56:38.025Z,39.50
2018-02-20T16:59:05.789Z,41.20
2018-02-20T17:01:33.255Z,39.00
2018-02-20T17:04:00.713Z,41.00
2018-02-20T17:06:28.789Z,39.10
2018-02-20T17:08:56.246Z,39.57
2018-02-20T17:11:23.716Z,44.50
2018-02-20T17:13:51.457Z,40.77
2018-02-20T17:16:18.923Z,41.67
2018-02-20T17:18:46.401Z,42.93
2018-02-20T17:21:14.157Z,40.60
2018-02-20T17:23:41.626Z,42.50
2018-02-20T17:26:09.089Z,43.30
2018-02-20T17:28:36.869Z,43.40
2018-02-20T17:31:04.360Z,43.20
2018-02-20T17:33:31.817Z,44.63
2018-02-20T17:35:59.536Z,41.73
2018-02-20T17:38:27.009Z,43.93
2018-02-20T17:40:54.487Z,45.70
2018-02-20T17:43:22.832Z,47.80
2018-02-20T17:45:50.290Z,58.77
2018-02-20T17:48:17.747Z,53.60
2018-02-20T17:50:45.518Z,52.03
2018-02-20T17:53:12.977Z,47.97
2018-02-20T17:55:40.441Z,45.10
2018-02-20T17:58:08.251Z,52.57
2018-02-20T18:00:35.706Z,49.17
2018-02-20T18:03:03.173Z,50.83
2018-02-20T18:05:30.922Z,49.03
2018-02-20T18:07:58.399Z,50.80
2018-02-20T18:10:25.856Z,49.90
2018-02-20T18:12:53.892Z,52.97
2018-02-20T18:15:21.350Z,52.43
2018-02-20T18:17:48.809Z,49.47
2018-02-20T18:20:16.882Z,48.00
2018-02-20T18:22:44.376Z,48.50
2018-02-20T18:25:11.845Z,44.80
2018-02-20T18:27:39.917Z,49.67
2018-02-20T18:30:07.382Z,47.67
2018-02-20T18:32:34.871Z,49.00
2018-02-20T18:35:02.874Z,46.73
2018-02-20T18:37:30.369Z,45.87
2018-02-20T18:39:57.831Z,47.57
2018-02-20T18:42:25.871Z,48.33
2018-02-20T18:44:53.707Z,49.77
2018-02-20T18:47:21.165Z,50.03
2018-02-20T18:49:48.878Z,52.33
2018-02-20T18:52:16.345Z,57.10
2018-02-20T18:54:43.859Z,57.50
2018-02-20T18:57:11.576Z,54.37
2018-02-20T18:59:39.025Z,56.67
2018-02-20T19:02:06.486Z,52.10
2018-02-20T19:04:34.582Z,53.40
2018-02-20T19:07:02.049Z,52.77
2018-02-20T19:09:29.528Z,48.20
2018-02-20T19:11:57.216Z,46.07
2018-02-20T19:14:24.687Z,47.43
2018-02-20T19:16:52.153Z,49.07
2018-02-20T19:19:20.188Z,50.20
2018-02-20T19:21:47.671Z,49.93
2018-02-20T19:24:15.124Z,56.00
2018-02-20T19:26:43.024Z,55.97
2018-02-20T19:29:10.480Z,54.47
2018-02-20T19:31:37.963Z,56.10
2018-02-20T19:34:05.892Z,59.00
2018-02-20T19:36:33.437Z,52.80
2018-02-20T19:39:00.909Z,52.10
2018-02-20T19:41:28.607Z,55.60
2018-02-20T19:43:56.074Z,62.10
2018-02-20T19:46:23.892Z,60.37
2018-02-20T19:48:51.597Z,60.17
2018-02-20T19:51:19.057Z,64.70
2018-02-20T19:53:46.511Z,76.73
2018-02-20T19:56:14.733Z,81.90
2018-02-20T19:58:42.189Z,62.90
2018-02-20T20:01:09.663Z,59.40
2018-02-20T20:03:37.474Z,59.80
2018-02-20T20:06:04.946Z,61.67
2018-02-20T20:08:32.423Z,59.30
2018-02-20T20:11:00.259Z,61.93
2018-02-20T20:13:27.719Z,60.50
2018-02-20T20:15:55.181Z,60.17
2018-02-20T20:18:22.940Z,63.00
2018-02-20T20:20:50.402Z,64.27
2018-02-20T20:23:17.863Z,70.13
2018-02-20T20:25:45.628Z,62.87
2018-02-20T20:28:13.090Z,66.57
2018-02-20T20:30:40.569Z,63.27
2018-02-20T20:33:08.313Z,66.20
2018-02-20T20:35:35.784Z,68.60
2018-02-20T20:38:03.240Z,60.97
2018-02-20T20:40:31.314Z,61.30
2018-02-20T20:42:58.781Z,63.67
2018-02-20T20:45:26.237Z,62.77
2018-02-20T20:47:54.297Z,62.60
2018-02-20T20:50:21.754Z,57.97
2018-02-20T20:52:49.227Z,60.67
2018-02-20T20:55:17.037Z,60.80
2018-02-20T20:57:44.460Z,63.60
2018-02-20T21:00:11.916Z,60.60
2018-02-20T21:02:39.670Z,66.40
2018-02-20T21:05:07.133Z,64.87
2018-02-20T21:07:34.801Z,57.67
2018-02-20T21:10:02.622Z,62.53
2018-02-20T21:12:30.086Z,58.60
2018-02-20T21:14:58.282Z,62.27
2018-02-20T21:17:26.274Z,61.57
2018-02-20T21:19:53.750Z,62.00
2018-02-20T21:22:21.222Z,65.00
2018-02-20T21:24:48.961Z,63.20
2018-02-20T21:27:16.425Z,60.10
2018-02-20T21:29:43.884Z,64.17
2018-02-20T21:32:11.646Z,63.07
2018-02-20T21:34:39.116Z,63.50
2018-02-20T21:37:06.577Z,60.20
2018-02-20T21:39:34.380Z,63.20
2018-02-20T21:42:01.835Z,61.97
2018-02-20T21:44:29.322Z,69.00
2018-02-20T21:46:57.021Z,67.60
2018-02-20T21:49:25.792Z,68.50
2018-02-20T21:51:53.274Z,68.10
2018-02-20T21:54:21.249Z,70.63
2018-02-20T21:56:48.710Z,67.10
2018-02-20T21:59:16.177Z,67.17
2018-02-20T22:01:43.975Z,66.93
2018-02-20T22:04:11.440Z,73.97
2018-02-20T22:06:39.206Z,69.80
2018-02-20T22:09:06.945Z,77.57
2018-02-20T22:11:34.413Z,68.20
2018-02-20T22:14:01.877Z,70.87
2018-02-20T22:16:29.618Z,70.10
2018-02-20T22:18:57.085Z,69.70
2018-02-20T22:21:24.549Z,72.77
2018-02-20T22:23:52.302Z,77.17
2018-02-20T22:26:19.822Z,78.00
2018-02-20T22:28:47.263Z,77.70
2018-02-20T22:31:15.035Z,78.70
2018-02-20T22:33:42.500Z,84.37
2018-02-20T22:36:09.966Z,82.10
2018-02-20T22:38:38.293Z,82.90
2018-02-20T22:41:05.768Z,75.47
2018-02-20T22:43:33.226Z,75.30
2018-02-20T22:46:00.970Z,81.37
2018-02-20T22:48:28.445Z,82.80
2018-02-20T22:50:56.898Z,78.60
2018-02-20T22:53:24.892Z,77.83
2018-02-20T22:55:52.353Z,77.50
2018-02-20T22:58:19.999Z,70.83
2018-02-20T23:00:47.906Z,76.13
2018-02-20T23:03:15.360Z,75.10
2018-02-20T23:05:42.823Z,74.87
2018-02-20T23:08:10.579Z,75.90
2018-02-20T23:10:38.050Z,76.23
2018-02-20T23:13:05.524Z,72.43
2018-02-20T23:15:33.282Z,76.90
2018-02-20T23:18:00.744Z,75.37
2018-02-20T23:20:28.224Z,77.40
2018-02-20T23:22:56.298Z,76.70
2018-02-20T23:25:23.775Z,78.43
2018-02-20T23:27:51.241Z,68.63
2018-02-20T23:30:19.561Z,73.73
2018-02-20T23:32:47.026Z,73.93
2018-02-20T23:35:14.489Z,75.00
2018-02-20T23:37:42.245Z,69.53
2018-02-20T23:40:09.712Z,66.63
2018-02-20T23:42:37.328Z,66.97
2018-02-20T23:45:05.179Z,69.07
2018-02-20T23:47:32.644Z,67.03
2018-02-20T23:50:00.119Z,67.77
2018-02-20T23:52:28.537Z,63.60
2018-02-20T23:54:56.004Z,64.70
2018-02-20T23:57:23.471Z,61.07
2018-02-20T23:59:51.268Z,57.70
